Archival Weather

Westchester County

White Plains, New York (KHPN)

Report from: Friday, February 23, 2024 2:56 AM EST
Current time: Wednesday, May 29, 2024 8:03 PM EDT

Current weather – Weather history – Daily summaries
Weather forecast

Present weatherLight rain, mist
Temperature3.3°C (37.9°F)
Wind chill1.9°C (35.5°F)
Dew point2.8°C (37.0°F)
Winds 3 kts (1.5 m/s, 3.5 mph) East (90°)
Visibility1.5 mi. (2.4 km)
Clouds Ceiling: Overcast 200 ft. (61 m)
Altimeter29.58 in.Hg (1002 mB)
PrecipitiationTrace
Relative humidity97 %
Density altitude-927 ft. (-283 m)
Sea-level pressure100.2 kPa (1002 mB, 29.59 in.Hg)
Remarks Automated weather observing station with precipitation discriminator
Flight conditions Low Instrument Meteorological Conditions
Raw dataKHPN 230756Z 09003KT 1 1/2SM R16/6000VP6000FT -RA BR OVC002 03/03 A2958 RMK AO2 SLP021 P0000 T00330028
An error has occurred. This application may no longer respond until reloaded. Reload 🗙